Time;durP1;ratioP1;P1;durP2;ratioP2;P2;SDS_P1;SDS_P2;PMS_P1;PMS_P2;Temp;Humidity;BMP_temperature;BMP_pressure;BME280_temperature;BME280_humidity;BME280_pressure;Samples;Min_cycle;Max_cycle;Signal;HPM_P1;HPM_P2
2023/10/09 00:02:09;;;;;;;3.20;1.58;;;13.30;99.90;;;;;;4977554;28;20296;-72
2023/10/09 00:04:41;;;;;;;2.45;1.20;;;13.10;99.90;;;;;;4983162;28;20275;-73
2023/10/09 00:07:10;;;;;;;2.30;1.13;;;12.90;99.90;;;;;;4980378;28;20229;-73
2023/10/09 00:09:58;;;;;;;2.55;1.20;;;12.90;99.90;;;;;;4983580;28;20308;-74
2023/10/09 00:12:22;;;;;;;2.70;1.30;;;12.90;99.90;;;;;;4981461;28;20665;-73
2023/10/09 00:14:55;;;;;;;3.70;1.58;;;12.90;99.90;;;;;;4974930;28;20213;-73
2023/10/09 00:17:22;;;;;;;2.25;1.25;;;12.90;99.90;;;;;;4979054;28;20218;-73
2023/10/09 00:19:51;;;;;;;2.78;1.83;;;12.80;99.90;;;;;;4979940;28;20304;-73
2023/10/09 00:22:26;;;;;;;3.17;1.02;;;12.80;99.90;;;;;;4980754;28;20210;-73
2023/10/09 00:25:21;;;;;;;2.90;1.60;;;12.80;99.90;;;;;;4977335;28;20222;-74
2023/10/09 00:27:46;;;;;;;3.20;1.27;;;12.90;99.90;;;;;;4978557;28;20214;-72
2023/10/09 00:30:15;;;;;;;2.88;1.38;;;12.90;99.90;;;;;;4981720;28;20235;-72
2023/10/09 00:32:43;;;;;;;1.60;1.10;;;12.90;99.90;;;;;;4983357;28;20210;-74
2023/10/09 00:38:00;;;;;;;4.45;1.52;;;13.00;99.90;;;;;;4979177;28;20719;-72
2023/10/09 00:40:31;;;;;;;2.80;1.30;;;12.80;99.90;;;;;;4979589;28;20225;-72
2023/10/09 00:42:58;;;;;;;3.97;1.73;;;12.80;99.90;;;;;;4972483;28;20218;-72
2023/10/09 00:45:32;;;;;;;3.63;1.38;;;12.70;99.90;;;;;;4977590;28;20183;-73
2023/10/09 00:48:01;;;;;;;3.53;1.27;;;12.60;99.90;;;;;;4980137;28;20217;-73
2023/10/09 00:50:35;;;;;;;2.65;1.33;;;12.30;99.90;;;;;;4980822;28;20206;-73
2023/10/09 00:53:10;;;;;;;1.33;1.17;;;12.30;99.90;;;;;;4979112;28;20214;-72
2023/10/09 00:58:13;;;;;;;2.78;1.10;;;12.10;99.90;;;;;;4977633;28;20218;-72
2023/10/09 01:03:22;;;;;;;3.08;1.48;;;12.20;99.90;;;;;;4978375;28;20493;-72
2023/10/09 01:11:10;;;;;;;4.13;2.15;;;12.20;99.90;;;;;;4977204;28;20209;-71
2023/10/09 01:13:52;;;;;;;3.77;1.47;;;12.20;99.90;;;;;;4978570;28;20211;-74
2023/10/09 01:16:21;;;;;;;4.83;1.53;;;12.10;99.90;;;;;;4977962;28;20218;-73
2023/10/09 01:18:56;;;;;;;2.20;1.17;;;12.10;99.90;;;;;;4981895;28;20228;-73
2023/10/09 01:21:26;;;;;;;4.35;1.50;;;12.00;99.90;;;;;;4977981;28;20186;-72
2023/10/09 01:24:03;;;;;;;2.17;1.30;;;12.00;99.90;;;;;;4982263;28;20305;-71
2023/10/09 01:26:44;;;;;;;2.80;1.70;;;11.90;99.90;;;;;;4981446;28;20232;-73
2023/10/09 01:29:14;;;;;;;4.63;1.40;;;11.90;99.90;;;;;;4974533;28;20317;-72
2023/10/09 01:32:00;;;;;;;3.90;1.60;;;11.90;99.90;;;;;;4972262;28;20214;-73
2023/10/09 01:34:45;;;;;;;3.97;1.60;;;11.80;99.90;;;;;;4979610;28;20708;-73
2023/10/09 01:37:18;;;;;;;3.17;1.40;;;11.70;99.90;;;;;;4973095;28;20210;-71
2023/10/09 01:39:48;;;;;;;2.90;1.60;;;11.70;99.90;;;;;;4979780;28;20218;-73
2023/10/09 01:42:24;;;;;;;2.33;1.23;;;11.60;99.90;;;;;;4980647;28;20181;-73
2023/10/09 01:44:53;;;;;;;4.97;1.63;;;11.70;99.90;;;;;;4979953;28;20198;-72
2023/10/09 01:47:21;;;;;;;2.93;2.13;;;11.70;99.90;;;;;;4980307;28;20248;-73
2023/10/09 01:49:49;;;;;;;2.40;1.70;;;11.60;99.90;;;;;;4979761;28;20308;-73
2023/10/09 01:52:16;;;;;;;4.03;1.73;;;11.60;99.90;;;;;;4978861;28;20296;-72
2023/10/09 01:54:47;;;;;;;2.20;1.20;;;11.70;99.90;;;;;;4976056;28;20641;-71
2023/10/09 01:57:13;;;;;;;4.03;1.70;;;11.50;99.90;;;;;;4972036;28;20182;-74
2023/10/09 01:59:53;;;;;;;2.23;1.50;;;11.40;99.90;;;;;;4980083;28;20566;-73
2023/10/09 02:02:26;;;;;;;2.67;1.80;;;11.60;99.90;;;;;;4974747;28;20587;-73
2023/10/09 02:06:03;;;;;;;2.70;1.37;;;11.60;99.90;;;;;;4976693;28;20225;-73
2023/10/09 02:07:58;;;;;;;4.33;1.60;;;11.50;99.90;;;;;;4952465;28;20738;-72
2023/10/09 02:12:59;;;;;;;2.58;1.30;;;11.60;99.90;;;;;;4981400;28;20225;-73
2023/10/09 02:23:46;;;;;;;2.13;1.57;;;11.60;99.90;;;;;;4981124;28;20222;-72
2023/10/09 02:26:25;;;;;;;3.23;1.37;;;11.50;99.90;;;;;;4979877;28;20205;-73
2023/10/09 02:29:28;;;;;;;4.10;1.40;;;11.50;99.90;;;;;;4983723;28;20312;-73
2023/10/09 02:31:51;;;;;;;2.25;1.60;;;11.50;99.90;;;;;;4980413;28;20333;-72
2023/10/09 02:34:21;;;;;;;5.60;1.83;;;11.60;99.90;;;;;;4982209;28;20206;-72
2023/10/09 02:36:57;;;;;;;3.33;1.70;;;11.70;99.90;;;;;;4984096;28;20210;-73
2023/10/09 02:39:24;;;;;;;2.30;1.80;;;11.80;99.90;;;;;;4980347;28;20223;-74
2023/10/09 02:42:01;;;;;;;3.00;1.50;;;11.90;99.90;;;;;;4985624;28;20173;-74
2023/10/09 02:44:39;;;;;;;2.83;1.67;;;11.80;99.90;;;;;;4978800;28;20218;-72
2023/10/09 02:47:11;;;;;;;3.40;2.13;;;11.70;99.90;;;;;;4977664;28;20211;-74
2023/10/09 02:49:39;;;;;;;4.78;1.55;;;11.60;99.90;;;;;;4979726;28;20293;-75
2023/10/09 02:52:07;;;;;;;4.40;1.90;;;11.50;99.90;;;;;;4983218;28;20275;-74
2023/10/09 02:54:41;;;;;;;2.63;1.83;;;11.40;99.90;;;;;;4982047;28;20214;-74
2023/10/09 02:57:07;;;;;;;7.70;2.43;;;11.40;99.90;;;;;;4977711;28;20217;-75
2023/10/09 02:59:41;;;;;;;2.83;1.70;;;11.40;99.90;;;;;;4979334;28;20756;-75
2023/10/09 03:02:07;;;;;;;2.70;1.70;;;11.50;99.90;;;;;;4979567;28;20201;-74
2023/10/09 03:04:33;;;;;;;2.50;1.87;;;11.50;99.90;;;;;;4975528;28;22139;-74
2023/10/09 03:06:59;;;;;;;6.43;2.20;;;11.30;99.90;;;;;;4976336;28;20210;-73
2023/10/09 03:09:28;;;;;;;4.80;2.60;;;11.50;99.90;;;;;;4978276;28;20681;-75
2023/10/09 03:12:02;;;;;;;3.27;1.80;;;11.60;99.90;;;;;;4982260;28;20201;-73
2023/10/09 03:14:35;;;;;;;3.87;1.73;;;11.40;99.90;;;;;;4977741;28;20265;-74
2023/10/09 03:17:01;;;;;;;3.90;1.87;;;11.50;99.90;;;;;;4983499;28;20233;-73
2023/10/09 03:19:28;;;;;;;2.50;1.70;;;11.40;99.90;;;;;;4981199;28;20226;-75
2023/10/09 03:21:57;;;;;;;3.23;1.80;;;11.30;99.90;;;;;;4984434;28;20197;-72
2023/10/09 03:24:23;;;;;;;2.27;1.73;;;11.40;99.90;;;;;;4981207;28;20253;-74
2023/10/09 03:26:49;;;;;;;5.37;2.00;;;11.40;99.90;;;;;;4973028;28;20198;-73
2023/10/09 03:29:15;;;;;;;2.80;1.50;;;11.30;99.90;;;;;;5002218;23;20237;-75
2023/10/09 03:31:43;;;;;;;2.43;1.73;;;11.40;99.90;;;;;;4995606;28;20206;-76
2023/10/09 03:34:10;;;;;;;7.53;2.37;;;11.40;99.90;;;;;;4988632;28;20220;-76
2023/10/09 03:36:39;;;;;;;4.40;1.77;;;11.30;99.90;;;;;;5010729;28;20296;-76
2023/10/09 03:39:23;;;;;;;3.50;2.10;;;11.30;99.90;;;;;;5009172;28;20196;-76
2023/10/09 03:41:50;;;;;;;4.73;1.70;;;11.40;99.90;;;;;;4987882;28;20292;-76
2023/10/09 03:44:18;;;;;;;5.47;2.43;;;11.40;99.90;;;;;;5000063;28;20308;-76
2023/10/09 03:46:44;;;;;;;3.03;1.87;;;11.50;99.90;;;;;;4998768;28;20201;-76
2023/10/09 03:49:11;;;;;;;5.33;1.80;;;11.40;99.90;;;;;;5001495;28;20340;-76
2023/10/09 03:51:37;;;;;;;3.17;1.90;;;11.40;99.90;;;;;;4999237;28;20229;-76
2023/10/09 03:54:07;;;;;;;2.97;1.27;;;11.20;99.90;;;;;;5001135;28;20176;-76
2023/10/09 03:56:33;;;;;;;3.65;2.00;;;11.20;99.90;;;;;;4999297;28;20507;-76
2023/10/09 03:59:01;;;;;;;2.30;1.70;;;11.20;99.90;;;;;;5001003;28;20209;-76
2023/10/09 04:01:37;;;;;;;3.13;1.63;;;11.40;99.90;;;;;;4991584;28;20611;-76
2023/10/09 04:04:04;;;;;;;4.00;1.90;;;11.30;99.90;;;;;;4989944;28;20688;-76
2023/10/09 04:06:32;;;;;;;3.33;1.50;;;11.30;99.90;;;;;;4979955;28;20177;-75
2023/10/09 04:11:47;;;;;;;2.40;1.47;;;11.30;99.90;;;;;;4995541;28;20726;-76
2023/10/09 04:14:24;;;;;;;3.00;1.60;;;11.40;99.90;;;;;;4995576;28;20209;-75
2023/10/09 04:17:03;;;;;;;3.07;1.80;;;11.60;99.90;;;;;;4999812;28;20281;-76
2023/10/09 04:19:29;;;;;;;4.97;1.30;;;11.50;99.90;;;;;;5000410;28;20675;-76
2023/10/09 04:21:58;;;;;;;4.00;1.70;;;11.50;99.90;;;;;;4988324;28;20206;-75
2023/10/09 04:24:24;;;;;;;2.57;1.80;;;11.40;99.90;;;;;;5000401;28;20197;-76
2023/10/09 04:26:56;;;;;;;4.33;1.60;;;11.40;99.90;;;;;;5004052;28;20162;-76
2023/10/09 04:29:26;;;;;;;1.93;1.43;;;11.30;99.90;;;;;;4997600;28;20201;-76
2023/10/09 04:31:56;;;;;;;2.73;1.87;;;11.30;99.90;;;;;;5000822;28;20224;-75
2023/10/09 04:34:28;;;;;;;2.07;1.33;;;11.20;99.90;;;;;;4998784;28;20285;-76
2023/10/09 04:37:00;;;;;;;3.00;1.57;;;11.30;99.90;;;;;;5002567;28;20236;-74
2023/10/09 04:45:18;;;;;;;4.43;1.50;;;11.40;99.90;;;;;;4993202;28;20348;-76
2023/10/09 04:47:36;;;;;;;2.93;1.20;;;11.40;99.90;;;;;;4992077;28;20696;-75
2023/10/09 04:50:11;;;;;;;2.13;1.30;;;11.20;99.90;;;;;;5014557;28;20209;-75
2023/10/09 05:02:56;;;;;;;2.53;1.47;;;11.10;99.90;;;;;;5001249;28;20202;-75
2023/10/09 05:08:21;;;;;;;2.47;1.60;;;11.20;99.90;;;;;;4994392;28;20201;-76
2023/10/09 05:16:18;;;;;;;3.30;1.43;;;11.10;99.90;;;;;;4996117;28;20625;-75
2023/10/09 05:19:07;;;;;;;3.77;1.73;;;11.10;99.90;;;;;;5000871;28;20580;-76
2023/10/09 05:34:33;;;;;;;2.50;1.90;;;11.30;99.90;;;;;;5000637;28;20837;-76
2023/10/09 05:37:22;;;;;;;3.27;1.63;;;11.30;99.90;;;;;;5000916;28;20205;-75
2023/10/09 05:47:56;;;;;;;3.10;1.70;;;11.00;99.90;;;;;;4996155;28;20209;-76
2023/10/09 06:24:42;;;;;;;3.07;1.80;;;11.00;99.90;;;;;;4996439;28;20221;-76
2023/10/09 07:01:46;;;;;;;6.73;2.50;;;11.20;99.90;;;;;;4999365;28;20209;-76
2023/10/09 07:04:19;;;;;;;4.47;2.10;;;11.30;99.90;;;;;;5002250;28;20228;-76
2023/10/09 07:06:56;;;;;;;5.37;2.30;;;11.50;99.90;;;;;;4990318;28;20222;-76
2023/10/09 07:09:22;;;;;;;2.27;1.57;;;11.40;99.90;;;;;;5001885;28;20562;-76
2023/10/09 07:17:00;;;;;;;4.77;2.17;;;11.70;99.90;;;;;;5000409;28;20228;-76
2023/10/09 07:19:57;;;;;;;4.17;2.43;;;11.90;99.90;;;;;;5002939;28;20217;-76
2023/10/09 07:24:58;;;;;;;3.83;2.20;;;11.90;99.90;;;;;;5001135;28;20229;-76
2023/10/09 07:27:45;;;;;;;3.97;2.10;;;11.80;99.90;;;;;;4987037;28;20754;-75
2023/10/09 07:33:05;;;;;;;3.20;1.63;;;11.80;99.90;;;;;;4999199;28;20569;-76
2023/10/09 07:35:57;;;;;;;4.10;1.75;;;11.70;99.90;;;;;;5000760;28;20322;-76
2023/10/09 07:38:23;;;;;;;3.97;2.57;;;11.60;99.90;;;;;;5000028;28;20205;-76
2023/10/09 07:43:45;;;;;;;4.90;2.00;;;11.70;99.90;;;;;;4992455;28;20214;-76
2023/10/09 07:46:30;;;;;;;4.63;2.97;;;11.50;99.90;;;;;;4996523;28;20201;-76
2023/10/09 07:48:57;;;;;;;2.93;1.80;;;11.60;99.90;;;;;;5001587;28;20766;-76
2023/10/09 07:51:30;;;;;;;4.30;2.60;;;11.50;99.90;;;;;;5000057;28;20598;-76
2023/10/09 07:53:57;;;;;;;3.20;2.00;;;11.60;99.90;;;;;;5010087;28;20189;-76
2023/10/09 07:56:30;;;;;;;7.03;2.50;;;11.60;99.90;;;;;;4989505;28;20210;-76
2023/10/09 07:59:00;;;;;;;7.17;2.73;;;11.70;99.90;;;;;;4998147;28;20215;-75
2023/10/09 08:04:01;;;;;;;2.57;1.90;;;11.70;99.90;;;;;;4999076;28;20213;-76
2023/10/09 08:06:39;;;;;;;2.63;2.30;;;11.70;99.90;;;;;;4996881;28;20172;-76
2023/10/09 08:17:11;;;;;;;5.60;3.53;;;11.70;99.90;;;;;;5001399;28;20208;-76
2023/10/09 08:19:54;;;;;;;5.10;2.23;;;11.80;99.90;;;;;;4998788;28;20662;-75
2023/10/09 08:24:56;;;;;;;7.60;2.80;;;12.10;99.90;;;;;;5000300;28;20237;-76
2023/10/09 08:32:43;;;;;;;3.17;1.93;;;12.00;99.90;;;;;;4997728;28;20744;-75
2023/10/09 08:37:53;;;;;;;4.43;2.10;;;12.20;99.90;;;;;;4985432;28;20296;-76
2023/10/09 08:40:20;;;;;;;4.77;2.83;;;12.20;99.90;;;;;;4995102;28;20292;-76
2023/10/09 08:42:53;;;;;;;7.77;2.30;;;12.20;99.90;;;;;;4997122;28;20557;-76
2023/10/09 08:45:24;;;;;;;4.67;1.70;;;12.20;99.90;;;;;;4999222;28;20235;-76
2023/10/09 08:47:53;;;;;;;3.63;2.35;;;12.20;99.90;;;;;;4997472;28;20174;-77
2023/10/09 08:50:20;;;;;;;4.90;2.20;;;12.10;99.90;;;;;;5001126;28;20201;-76
2023/10/09 08:52:48;;;;;;;4.30;2.47;;;12.20;99.90;;;;;;4998090;28;20209;-74
2023/10/09 08:55:16;;;;;;;6.55;2.30;;;12.20;99.90;;;;;;5001745;28;20328;-76
2023/10/09 08:57:46;;;;;;;3.20;2.00;;;12.30;99.90;;;;;;4990282;28;20205;-76
2023/10/09 09:00:21;;;;;;;4.33;2.13;;;12.10;99.90;;;;;;4998214;28;20193;-76
2023/10/09 09:02:47;;;;;;;6.60;2.90;;;12.20;99.90;;;;;;4996728;28;20200;-76
2023/10/09 09:05:18;;;;;;;1.83;1.47;;;12.00;99.90;;;;;;5000965;28;20224;-76
2023/10/09 09:07:44;;;;;;;6.90;1.80;;;12.00;99.90;;;;;;4998224;28;20255;-76
2023/10/09 09:10:21;;;;;;;3.63;2.00;;;12.00;99.90;;;;;;5001427;28;20209;-76
2023/10/09 09:13:10;;;;;;;2.70;1.70;;;12.00;99.90;;;;;;4985187;28;20695;-76
2023/10/09 09:15:39;;;;;;;3.00;1.87;;;11.90;99.90;;;;;;4991300;28;20715;-77
2023/10/09 09:18:08;;;;;;;2.77;1.90;;;12.00;99.90;;;;;;4988766;28;20201;-77
2023/10/09 09:20:36;;;;;;;3.30;1.80;;;11.90;99.90;;;;;;5001679;28;20554;-76
2023/10/09 09:23:05;;;;;;;6.20;2.53;;;11.90;99.90;;;;;;4997252;28;20615;-76
2023/10/09 09:26:01;;;;;;;3.67;1.83;;;12.00;99.90;;;;;;5001665;28;20233;-77
2023/10/09 09:28:32;;;;;;;3.43;1.77;;;11.90;99.90;;;;;;4996194;28;20247;-76
2023/10/09 09:31:13;;;;;;;2.70;1.50;;;11.90;99.90;;;;;;4996616;28;20218;-76
2023/10/09 09:33:48;;;;;;;3.33;2.20;;;12.00;99.90;;;;;;5013259;23;20225;-72
2023/10/09 09:36:13;;;;;;;4.27;2.23;;;12.00;99.90;;;;;;4965519;28;20649;-74
2023/10/09 09:38:42;;;;;;;4.03;2.53;;;12.00;99.90;;;;;;4966707;28;20174;-72
2023/10/09 09:41:12;;;;;;;3.33;2.13;;;12.20;99.90;;;;;;4966141;28;20202;-74
2023/10/09 09:43:44;;;;;;;4.37;2.47;;;12.30;99.90;;;;;;4965453;28;20214;-73
2023/10/09 09:46:11;;;;;;;3.17;2.30;;;12.10;99.90;;;;;;4964924;28;20334;-74
2023/10/09 09:48:44;;;;;;;7.32;3.22;;;12.10;99.90;;;;;;4962838;28;20214;-74
2023/10/09 09:51:10;;;;;;;4.20;2.40;;;12.10;99.90;;;;;;4964207;28;20177;-74
2023/10/09 09:53:36;;;;;;;3.47;2.20;;;11.90;99.90;;;;;;4961971;28;20202;-73
2023/10/09 09:56:04;;;;;;;4.40;2.67;;;12.00;99.90;;;;;;4969620;28;20213;-74
2023/10/09 09:58:42;;;;;;;3.57;2.33;;;11.90;99.90;;;;;;4960368;28;20677;-74
2023/10/09 10:01:24;;;;;;;3.30;2.23;;;12.00;99.90;;;;;;4960422;28;20214;-74
2023/10/09 10:03:59;;;;;;;5.33;2.43;;;12.00;99.90;;;;;;4965810;28;20678;-74
2023/10/09 10:06:26;;;;;;;4.90;2.87;;;12.00;99.90;;;;;;4955205;28;20170;-74
2023/10/09 10:08:53;;;;;;;4.80;2.57;;;11.90;99.90;;;;;;4966584;28;20189;-74
2023/10/09 10:11:44;;;;;;;5.13;2.80;;;12.00;99.90;;;;;;4956614;28;20689;-73
2023/10/09 10:14:21;;;;;;;4.03;2.77;;;11.90;99.90;;;;;;4967092;28;20242;-73
2023/10/09 10:17:29;;;;;;;4.70;2.97;;;11.90;99.90;;;;;;4962467;28;20202;-74
2023/10/09 10:19:59;;;;;;;5.50;3.23;;;11.90;99.90;;;;;;4961355;28;20583;-74
2023/10/09 10:22:27;;;;;;;5.30;3.10;;;11.90;99.90;;;;;;4969293;28;20204;-73
2023/10/09 10:24:54;;;;;;;4.07;2.93;;;11.70;99.90;;;;;;4962520;28;20237;-73
2023/10/09 10:27:26;;;;;;;4.60;3.17;;;11.90;99.90;;;;;;4961531;28;20176;-73
2023/10/09 10:30:13;;;;;;;4.50;3.03;;;11.90;99.90;;;;;;4961370;28;20229;-74
2023/10/09 10:32:56;;;;;;;6.40;3.17;;;11.90;99.90;;;;;;4957051;28;20206;-73
2023/10/09 10:38:34;;;;;;;5.40;4.03;;;11.80;99.90;;;;;;4959181;28;20330;-74
2023/10/09 10:41:11;;;;;;;4.83;3.60;;;11.90;99.90;;;;;;4964439;28;20213;-73
2023/10/09 10:46:38;;;;;;;19.23;12.07;;;11.90;99.90;;;;;;4963162;28;20202;-74
2023/10/09 10:49:15;;;;;;;7.93;4.70;;;12.10;99.90;;;;;;4964719;28;20206;-74
2023/10/09 10:51:47;;;;;;;5.47;3.10;;;12.20;99.90;;;;;;4962449;28;20211;-74
2023/10/09 10:57:00;;;;;;;6.13;3.50;;;12.40;99.90;;;;;;4965592;28;20574;-73
2023/10/09 10:59:36;;;;;;;3.40;2.70;;;12.50;99.90;;;;;;4961812;28;20203;-74
2023/10/09 11:04:45;;;;;;;5.88;3.10;;;12.60;99.90;;;;;;4959978;28;20217;-74
2023/10/09 11:07:16;;;;;;;3.75;3.10;;;12.70;99.90;;;;;;4971243;28;20224;-73
2023/10/09 11:18:07;;;;;;;6.00;3.40;;;12.40;99.90;;;;;;4962831;28;20174;-74
2023/10/09 11:20:38;;;;;;;4.13;2.80;;;12.70;99.90;;;;;;4962101;28;20202;-74
2023/10/09 11:25:50;;;;;;;7.28;3.20;;;13.00;99.90;;;;;;4961944;28;20203;-74
2023/10/09 11:31:18;;;;;;;4.82;3.45;;;12.90;99.90;;;;;;4964932;28;20209;-72
2023/10/09 11:33:48;;;;;;;5.32;3.30;;;13.00;99.90;;;;;;4964121;28;20234;-72
2023/10/09 11:36:15;;;;;;;4.38;3.30;;;12.90;99.90;;;;;;4960758;28;20545;-72
2023/10/09 11:38:45;;;;;;;5.18;2.88;;;12.80;99.90;;;;;;4962635;28;20179;-74
2023/10/09 11:41:24;;;;;;;6.18;3.88;;;12.90;99.90;;;;;;4966717;28;20198;-74
2023/10/09 11:43:57;;;;;;;4.68;3.72;;;13.00;99.90;;;;;;4961074;28;20216;-73
2023/10/09 11:54:33;;;;;;;5.78;3.95;;;13.20;99.90;;;;;;4961757;28;20229;-74
2023/10/09 11:57:02;;;;;;;5.47;3.30;;;13.50;99.90;;;;;;4964220;28;20175;-73
2023/10/09 11:59:34;;;;;;;7.38;3.05;;;13.60;99.90;;;;;;4958935;28;20199;-74
2023/10/09 12:02:01;;;;;;;3.40;2.67;;;13.70;99.90;;;;;;4963039;28;20621;-74
2023/10/09 12:04:30;;;;;;;5.15;3.55;;;14.00;99.90;;;;;;4956807;28;20581;-74
2023/10/09 12:07:06;;;;;;;5.35;4.13;;;13.80;99.90;;;;;;4968879;28;20245;-73
2023/10/09 12:09:34;;;;;;;7.70;4.35;;;13.50;99.90;;;;;;4963857;28;20244;-74
2023/10/09 12:12:04;;;;;;;5.60;4.15;;;13.10;99.90;;;;;;4965817;28;20178;-73
2023/10/09 12:14:37;;;;;;;6.40;4.28;;;13.00;99.90;;;;;;4972056;28;20211;-74
2023/10/09 12:17:07;;;;;;;6.20;4.20;;;13.00;99.90;;;;;;4972487;28;20218;-75
2023/10/09 12:19:37;;;;;;;4.63;3.85;;;13.00;99.90;;;;;;4960682;28;20215;-72
2023/10/09 12:22:04;;;;;;;6.38;3.90;;;12.90;99.90;;;;;;4960357;28;20885;-73
2023/10/09 12:24:31;;;;;;;9.35;4.38;;;13.10;99.90;;;;;;4961783;28;20261;-73
2023/10/09 12:26:57;;;;;;;6.93;4.15;;;13.20;99.90;;;;;;4963882;28;20727;-73
2023/10/09 12:29:23;;;;;;;6.30;3.92;;;13.40;99.90;;;;;;4965664;28;20202;-74
2023/10/09 12:31:58;;;;;;;6.05;3.58;;;13.20;99.90;;;;;;4974623;28;20217;-74
2023/10/09 12:34:26;;;;;;;6.57;4.20;;;13.10;99.90;;;;;;4968407;28;20292;-74
2023/10/09 12:36:55;;;;;;;5.35;3.88;;;12.90;99.90;;;;;;4960155;28;20299;-74
2023/10/09 12:39:23;;;;;;;6.22;4.20;;;12.70;99.90;;;;;;4960608;28;20549;-74
2023/10/09 12:41:53;;;;;;;5.90;3.85;;;12.90;99.90;;;;;;4965746;28;20177;-73
2023/10/09 12:44:22;;;;;;;6.30;4.40;;;12.80;99.90;;;;;;4961446;28;20249;-74
2023/10/09 12:46:53;;;;;;;5.95;4.28;;;12.80;99.90;;;;;;4965097;28;20206;-74
2023/10/09 12:49:24;;;;;;;6.30;4.50;;;12.90;99.90;;;;;;4956326;28;20203;-73
2023/10/09 12:51:52;;;;;;;6.30;3.88;;;13.10;99.90;;;;;;4963817;28;20218;-74
2023/10/09 12:54:20;;;;;;;5.95;4.00;;;12.90;99.90;;;;;;4963258;28;20280;-74
2023/10/09 12:56:49;;;;;;;4.32;3.63;;;12.70;99.90;;;;;;4958712;28;20638;-72
2023/10/09 12:59:15;;;;;;;4.45;3.15;;;12.80;99.90;;;;;;4959407;28;20215;-73
2023/10/09 13:01:43;;;;;;;6.72;4.65;;;12.90;99.90;;;;;;4960427;28;20245;-73
2023/10/09 13:04:16;;;;;;;5.80;4.03;;;12.90;99.90;;;;;;4960209;28;20701;-73
2023/10/09 13:06:45;;;;;;;6.40;4.53;;;12.80;99.90;;;;;;4963338;28;20630;-74
2023/10/09 13:09:32;;;;;;;7.43;4.53;;;12.70;99.90;;;;;;4978254;28;20236;-73
2023/10/09 13:12:00;;;;;;;5.63;4.97;;;12.70;99.90;;;;;;4965086;28;20171;-74
2023/10/09 13:14:26;;;;;;;6.82;5.00;;;12.80;99.90;;;;;;4968618;28;20612;-74
2023/10/09 13:16:52;;;;;;;8.55;4.93;;;12.80;99.90;;;;;;4970503;28;20198;-73
2023/10/09 13:19:18;;;;;;;6.75;4.40;;;12.70;99.90;;;;;;4960977;28;20253;-73
2023/10/09 13:21:44;;;;;;;6.33;4.93;;;12.50;99.90;;;;;;4959205;28;20206;-74
2023/10/09 13:24:15;;;;;;;6.15;5.07;;;12.40;99.90;;;;;;4971405;28;20209;-74
2023/10/09 13:26:51;;;;;;;8.17;5.47;;;12.40;99.90;;;;;;4959586;28;20207;-73
2023/10/09 13:29:22;;;;;;;8.52;5.63;;;12.40;99.90;;;;;;4970282;28;20213;-73
2023/10/09 13:31:51;;;;;;;6.15;5.18;;;12.40;99.90;;;;;;4960099;28;20281;-72
2023/10/09 13:34:16;;;;;;;8.43;5.65;;;12.40;99.90;;;;;;4963504;28;20206;-73
2023/10/09 13:36:55;;;;;;;13.85;7.55;;;12.40;99.90;;;;;;4960210;28;20604;-75
2023/10/09 13:39:24;;;;;;;8.40;6.33;;;12.40;99.90;;;;;;4973687;28;20309;-74
2023/10/09 13:42:08;;;;;;;8.10;6.50;;;12.30;99.90;;;;;;4966728;28;20666;-74
2023/10/09 13:44:36;;;;;;;9.13;5.25;;;12.50;99.90;;;;;;4960007;28;20210;-74
2023/10/09 13:47:05;;;;;;;6.83;5.07;;;12.50;99.90;;;;;;4962025;28;20203;-72
2023/10/09 13:49:34;;;;;;;9.73;5.65;;;12.50;99.90;;;;;;4961407;28;20199;-73
2023/10/09 13:52:02;;;;;;;7.07;5.10;;;12.30;99.90;;;;;;4961828;28;20209;-73
2023/10/09 13:54:39;;;;;;;9.73;5.17;;;12.50;99.90;;;;;;4963717;28;20202;-74
2023/10/09 13:57:05;;;;;;;8.83;5.23;;;12.60;99.90;;;;;;4964715;28;20272;-74
2023/10/09 13:59:32;;;;;;;8.47;5.53;;;12.50;99.90;;;;;;4967737;28;20206;-74
2023/10/09 14:01:59;;;;;;;8.20;5.07;;;12.40;99.90;;;;;;4967806;28;20616;-74
2023/10/09 14:04:26;;;;;;;6.90;5.03;;;12.50;99.90;;;;;;4960381;28;20292;-74
2023/10/09 14:07:00;;;;;;;7.93;5.80;;;12.40;99.90;;;;;;4959025;28;20219;-73
2023/10/09 14:09:44;;;;;;;7.47;5.60;;;12.40;99.90;;;;;;4960256;28;20784;-74
2023/10/09 14:12:11;;;;;;;6.83;5.30;;;12.30;99.90;;;;;;4962302;28;20206;-73
2023/10/09 14:14:47;;;;;;;8.07;5.28;;;12.50;99.90;;;;;;4963335;28;20785;-74
2023/10/09 14:17:13;;;;;;;7.00;4.50;;;12.70;99.90;;;;;;4967738;28;20217;-74
2023/10/09 14:19:49;;;;;;;5.45;4.68;;;12.70;99.90;;;;;;4962432;28;20199;-75
2023/10/09 14:22:16;;;;;;;9.50;4.38;;;12.80;99.90;;;;;;4976050;28;20206;-74
2023/10/09 14:24:45;;;;;;;6.72;5.00;;;12.80;99.90;;;;;;4965457;28;20757;-74
2023/10/09 14:27:17;;;;;;;7.45;4.20;;;12.70;99.90;;;;;;4972880;28;20340;-74
2023/10/09 14:29:47;;;;;;;7.45;4.85;;;12.70;99.90;;;;;;4963256;28;20938;-73
2023/10/09 14:32:13;;;;;;;6.78;4.97;;;12.70;99.90;;;;;;4966219;28;20216;-73
2023/10/09 14:34:46;;;;;;;7.25;4.80;;;12.80;99.90;;;;;;4962133;28;20219;-73
2023/10/09 14:37:12;;;;;;;6.57;4.80;;;13.00;99.90;;;;;;4955942;28;20309;-73
2023/10/09 14:39:39;;;;;;;5.85;4.00;;;12.90;99.90;;;;;;4969137;28;20636;-73
2023/10/09 14:42:11;;;;;;;6.75;4.97;;;13.00;99.90;;;;;;4968423;28;20537;-73
2023/10/09 14:44:38;;;;;;;7.22;5.38;;;12.90;99.90;;;;;;4960783;28;20261;-73
2023/10/09 14:47:07;;;;;;;7.57;5.03;;;12.80;99.90;;;;;;4970362;28;20237;-73
2023/10/09 14:50:01;;;;;;;11.30;5.90;;;12.90;99.90;;;;;;4961230;28;20234;-73
2023/10/09 14:52:20;;;;;;;7.05;5.30;;;12.80;99.90;;;;;;4966235;28;20230;-73
2023/10/09 14:54:46;;;;;;;7.28;5.25;;;12.80;99.90;;;;;;4968514;28;20219;-74
2023/10/09 14:57:13;;;;;;;8.27;5.45;;;12.80;99.90;;;;;;4964323;28;20178;-73
2023/10/09 14:59:39;;;;;;;7.97;5.72;;;12.80;99.90;;;;;;4962930;28;20230;-73
2023/10/09 15:02:05;;;;;;;8.18;4.82;;;12.60;99.90;;;;;;4963249;28;20306;-73
2023/10/09 15:04:35;;;;;;;7.03;5.15;;;12.60;99.90;;;;;;4963021;28;20329;-73
2023/10/09 15:07:01;;;;;;;6.47;5.10;;;12.70;99.90;;;;;;4960756;28;20265;-73
2023/10/09 15:09:31;;;;;;;6.95;4.65;;;12.70;99.90;;;;;;4958993;28;20177;-73
2023/10/09 15:11:57;;;;;;;7.03;5.47;;;12.60;99.90;;;;;;4960322;28;20170;-72
2023/10/09 15:14:23;;;;;;;6.43;4.68;;;12.50;99.90;;;;;;4963282;28;20207;-72
2023/10/09 15:16:49;;;;;;;6.88;4.45;;;12.50;99.90;;;;;;4968024;28;20218;-73
2023/10/09 15:19:16;;;;;;;7.97;4.60;;;12.40;99.90;;;;;;4969399;28;20302;-72
2023/10/09 15:21:45;;;;;;;7.00;4.50;;;12.40;99.90;;;;;;4970773;28;20206;-74
2023/10/09 15:24:15;;;;;;;6.78;4.63;;;12.50;99.90;;;;;;4966615;28;20217;-73
2023/10/09 15:26:52;;;;;;;7.60;4.90;;;12.40;99.90;;;;;;4960055;28;20182;-73
2023/10/09 15:29:23;;;;;;;6.55;4.57;;;12.40;99.90;;;;;;4963048;28;20665;-73
2023/10/09 15:31:52;;;;;;;5.40;4.40;;;12.40;99.90;;;;;;4965920;28;20751;-74
2023/10/09 15:34:20;;;;;;;9.57;5.20;;;12.40;99.90;;;;;;4968463;28;20237;-73
2023/10/09 15:36:49;;;;;;;6.93;5.03;;;12.50;99.90;;;;;;4961902;28;20221;-73
2023/10/09 15:39:19;;;;;;;6.28;4.80;;;12.40;99.90;;;;;;4960707;28;20221;-73
2023/10/09 15:41:45;;;;;;;7.72;4.72;;;12.40;99.90;;;;;;4964735;28;20166;-74
2023/10/09 15:44:13;;;;;;;8.30;4.57;;;12.40;99.90;;;;;;4968551;28;20229;-74
2023/10/09 15:46:39;;;;;;;6.70;4.97;;;12.60;99.90;;;;;;4961472;28;20203;-74
2023/10/09 15:49:07;;;;;;;7.35;4.82;;;12.50;99.90;;;;;;4959072;28;20733;-74
2023/10/09 15:51:33;;;;;;;7.20;4.50;;;12.50;99.90;;;;;;4961524;28;20682;-74
2023/10/09 15:54:01;;;;;;;6.85;4.75;;;12.40;99.90;;;;;;4965350;28;20213;-73
2023/10/09 15:56:26;;;;;;;10.57;5.63;;;12.40;99.90;;;;;;4959314;28;20284;-73
2023/10/09 15:58:53;;;;;;;7.90;4.73;;;12.50;99.90;;;;;;4962830;28;20725;-71
2023/10/09 16:01:20;;;;;;;8.00;4.80;;;12.40;99.90;;;;;;4964779;28;20265;-72
2023/10/09 16:03:50;;;;;;;7.38;4.75;;;12.40;99.90;;;;;;4979106;28;20797;-73
2023/10/09 16:06:18;;;;;;;7.05;5.57;;;12.30;99.90;;;;;;4964101;28;20704;-73
2023/10/09 16:08:48;;;;;;;9.27;5.57;;;12.40;99.90;;;;;;4963665;28;20174;-73
2023/10/09 16:11:18;;;;;;;10.17;6.40;;;12.30;99.90;;;;;;4962887;28;20253;-73
2023/10/09 16:13:44;;;;;;;7.73;6.00;;;12.30;99.90;;;;;;4962020;28;20249;-73
2023/10/09 16:16:13;;;;;;;8.85;5.40;;;12.30;99.90;;;;;;4962865;28;20210;-73
2023/10/09 16:18:39;;;;;;;8.57;6.33;;;12.20;99.90;;;;;;4965002;28;20214;-73
2023/10/09 16:21:07;;;;;;;9.80;5.63;;;12.20;99.90;;;;;;4970149;28;20221;-73
2023/10/09 16:23:32;;;;;;;6.20;5.07;;;12.20;99.90;;;;;;4961708;28;20215;-73
2023/10/09 16:25:59;;;;;;;6.73;4.53;;;12.20;99.90;;;;;;4962095;28;20209;-72
2023/10/09 16:28:26;;;;;;;7.37;4.60;;;12.10;99.90;;;;;;4967309;28;20207;-73
2023/10/09 16:30:53;;;;;;;8.87;5.43;;;12.10;99.90;;;;;;4962222;28;20817;-73
2023/10/09 16:33:19;;;;;;;8.90;6.18;;;12.10;99.90;;;;;;4965030;28;20206;-72
2023/10/09 16:35:46;;;;;;;8.43;5.83;;;12.00;99.90;;;;;;4968203;28;20250;-73